Time;durP1;ratioP1;P1;durP2;ratioP2;P2;SDS_P1;SDS_P2;PMS_P1;PMS_P2;Temp;Humidity;BMP_temperature;BMP_pressure;BME280_temperature;BME280_humidity;BME280_pressure;Samples;Min_cycle;Max_cycle;Signal;HPM_P1;HPM_P2
2021/06/09 00:02:04;;;;;;;;;;;;;;;12.62;100.00;93118.00;5092485;28;20059;-82
2021/06/09 00:04:30;;;;;;;2.45;1.42;;;;;;;12.41;100.00;93095.16;5092292;28;19916;-82
2021/06/09 00:06:56;;;;;;;2.15;1.15;;;;;;;12.50;100.00;93115.44;5092856;28;20048;-82
2021/06/09 00:09:22;;;;;;;;;;;;;;;12.47;100.00;93111.53;5092515;28;20051;-82
2021/06/09 00:11:49;;;;;;;2.80;1.83;;;;;;;12.40;100.00;93108.25;5092154;28;19916;-82
2021/06/09 00:14:16;;;;;;;;;;;;;;;12.34;100.00;93109.94;5092789;28;20070;-82
2021/06/09 00:16:44;;;;;;;6.15;1.40;;;;;;;12.23;100.00;93114.06;5091896;28;19924;-82
2021/06/09 00:19:14;;;;;;;2.25;1.65;;;;;;;12.15;100.00;93112.63;5092381;28;20074;-82
2021/06/09 00:21:46;;;;;;;1.98;1.40;;;;;;;12.03;100.00;93096.31;5092181;28;20543;-82
2021/06/09 00:24:13;;;;;;;2.22;1.60;;;;;;;12.12;100.00;93113.03;5091806;28;20132;-83
2021/06/09 00:26:39;;;;;;;2.25;1.77;;;;;;;12.14;100.00;93110.25;5092065;28;20431;-83
2021/06/09 00:29:05;;;;;;;;;;;;;;;12.14;100.00;93111.03;5092419;28;20498;-83
2021/06/09 00:31:31;;;;;;;2.42;1.60;;;;;;;12.06;100.00;93113.94;5092109;28;19916;-83
2021/06/09 00:33:58;;;;;;;1.77;1.27;;;;;;;12.01;100.00;93112.00;5091732;28;20048;-83
2021/06/09 00:36:25;;;;;;;3.42;1.40;;;;;;;11.82;100.00;93089.88;5091520;28;20044;-83
2021/06/09 00:38:52;;;;;;;2.58;1.52;;;;;;;11.76;100.00;93099.28;5091327;28;20101;-83
2021/06/09 00:41:18;;;;;;;1.90;1.13;;;;;;;11.94;100.00;93102.78;5091371;28;20044;-83
2021/06/09 00:43:44;;;;;;;;;;;;;;;11.98;100.00;93115.00;5091243;28;20491;-82
2021/06/09 00:46:11;;;;;;;1.48;0.95;;;;;;;11.89;100.00;93121.44;5091231;28;19938;-82
2021/06/09 00:48:40;;;;;;;1.88;1.25;;;;;;;11.90;100.00;93118.66;5090877;28;20055;-82
2021/06/09 00:51:12;;;;;;;2.20;1.73;;;;;;;11.86;100.00;93106.47;5091222;28;20044;-82
2021/06/09 00:53:47;;;;;;;3.08;1.80;;;;;;;11.94;100.00;93118.25;5090741;28;20040;-82
2021/06/09 00:56:14;;;;;;;2.85;1.67;;;;;;;11.84;100.00;93100.72;5091057;28;20040;-82
2021/06/09 00:58:43;;;;;;;3.40;1.45;;;;;;;11.93;100.00;93109.72;5090565;28;20644;-82
2021/06/09 01:01:12;;;;;;;2.53;1.20;;;;;;;11.85;100.00;93103.09;5091008;28;20457;-82
2021/06/09 01:03:38;;;;;;;2.38;1.25;;;;;;;11.88;100.00;93117.31;5090822;28;20474;-82
2021/06/09 01:06:06;;;;;;;2.00;1.02;;;;;;;11.85;100.00;93110.03;5090690;28;20036;-82
2021/06/09 01:08:36;;;;;;;1.70;1.00;;;;;;;11.86;100.00;93114.19;5090825;28;20399;-83
2021/06/09 01:11:05;;;;;;;1.83;1.13;;;;;;;11.80;100.00;93120.97;5090475;28;20441;-82
2021/06/09 01:13:31;;;;;;;2.58;1.50;;;;;;;11.65;100.00;93100.81;5090359;28;20044;-85
2021/06/09 01:15:58;;;;;;;2.33;1.48;;;;;;;11.71;100.00;93106.88;5090642;28;20082;-83
2021/06/09 01:18:25;;;;;;;3.35;1.00;;;;;;;11.53;100.00;93087.13;5090150;28;20040;-83
2021/06/09 01:20:53;;;;;;;1.77;0.93;;;;;;;11.47;100.00;93086.19;5090033;28;20043;-83
2021/06/09 01:23:21;;;;;;;2.28;0.98;;;;;;;11.65;100.00;93123.16;5090377;28;20051;-83
2021/06/09 01:25:48;;;;;;;1.85;1.40;;;;;;;11.67;100.00;93108.31;5090568;28;20043;-82
2021/06/09 01:28:15;;;;;;;2.70;1.30;;;;;;;11.61;100.00;93108.16;5090178;28;20081;-82
2021/06/09 01:30:43;;;;;;;2.00;1.38;;;;;;;11.54;100.00;93102.34;5090039;28;20055;-82
2021/06/09 01:33:11;;;;;;;2.22;1.80;;;;;;;11.55;100.00;93114.19;5090033;28;20040;-82
2021/06/09 01:35:37;;;;;;;2.20;1.45;;;;;;;11.44;100.00;93110.56;5090339;28;20071;-80
2021/06/09 01:38:06;;;;;;;2.75;1.52;;;;;;;11.18;100.00;93084.19;5089849;28;20507;-80
2021/06/09 01:40:34;;;;;;;8.07;1.50;;;;;;;11.34;100.00;93102.59;5090219;28;20063;-82
2021/06/09 01:43:02;;;;;;;2.50;1.50;;;;;;;11.37;100.00;93120.16;5090144;28;20048;-82
2021/06/09 01:45:31;;;;;;;2.35;1.27;;;;;;;11.36;100.00;93111.63;5090231;28;20909;-81
2021/06/09 01:47:59;;;;;;;2.28;0.98;;;;;;;11.34;100.00;93112.88;5089894;28;20040;-81
2021/06/09 01:50:26;;;;;;;1.88;1.13;;;;;;;11.20;100.00;93102.72;5089789;28;20040;-81
2021/06/09 01:52:54;;;;;;;1.70;0.90;;;;;;;11.28;100.00;93106.81;5089583;28;20047;-81
2021/06/09 01:55:23;;;;;;;4.97;2.30;;;;;;;11.30;100.00;93112.50;5089728;28;20462;-81
2021/06/09 01:57:52;;;;;;;3.00;1.20;;;;;;;11.27;100.00;93117.28;5089694;28;20048;-81
2021/06/09 02:00:21;;;;;;;2.90;1.00;;;;;;;11.21;100.00;93113.81;5089661;28;20044;-81
2021/06/09 02:02:47;;;;;;;2.90;1.50;;;;;;;11.17;100.00;93105.75;5089374;28;20479;-82
2021/06/09 02:05:14;;;;;;;2.13;1.15;;;;;;;11.18;100.00;93103.94;5089649;28;20040;-82
2021/06/09 02:07:43;;;;;;;3.13;1.80;;;;;;;11.15;100.00;93104.41;5089386;28;20059;-82
2021/06/09 02:10:12;;;;;;;2.47;1.08;;;;;;;11.17;100.00;93117.81;5089663;28;20387;-82
2021/06/09 02:12:41;;;;;;;3.22;1.35;;;;;;;11.06;100.00;93096.97;5089395;28;20044;-82
2021/06/09 02:15:11;;;;;;;2.80;1.60;;;;;;;11.14;100.00;93119.03;5089595;28;20050;-82
2021/06/09 02:17:38;;;;;;;2.08;1.40;;;;;;;11.12;100.00;93115.91;5089586;28;20039;-82
2021/06/09 02:20:05;;;;;;;2.08;1.35;;;;;;;11.00;100.00;93107.31;5089122;28;20050;-82
2021/06/09 02:22:32;;;;;;;2.80;1.40;;;;;;;11.02;100.00;93116.38;5089565;28;20533;-82
2021/06/09 02:24:58;;;;;;;1.67;1.05;;;;;;;10.91;100.00;93119.66;5089505;28;20043;-82
2021/06/09 02:27:25;;;;;;;3.15;1.15;;;;;;;10.83;100.00;93110.44;5088300;28;20048;-83
2021/06/09 02:29:51;;;;;;;;;;;;;;;10.80;100.00;93119.34;5089737;28;20044;-82
2021/06/09 02:32:19;;;;;;;2.60;1.40;;;;;;;10.67;100.00;93116.94;5088972;28;19923;-84
2021/06/09 02:34:46;;;;;;;2.88;1.70;;;;;;;10.69;100.00;93122.63;5089189;28;20039;-84
2021/06/09 02:37:13;;;;;;;2.17;1.27;;;;;;;10.67;100.00;93114.34;5089218;28;20043;-84
2021/06/09 02:39:39;;;;;;;2.47;1.63;;;;;;;10.66;100.00;93118.69;5088568;28;20043;-84
2021/06/09 02:42:05;;;;;;;;;;;;;;;10.65;100.00;93116.38;5089473;28;20032;-84
2021/06/09 02:44:32;;;;;;;1.95;1.10;;;;;;;10.60;100.00;93118.78;5088559;28;20477;-82
2021/06/09 02:47:00;;;;;;;2.38;1.20;;;;;;;10.59;100.00;93117.97;5088512;28;20465;-81
2021/06/09 02:49:30;;;;;;;1.90;1.25;;;;;;;10.59;100.00;93120.56;5083532;28;20456;-82
2021/06/09 02:52:05;;;;;;;4.55;1.55;;;;;;;10.63;100.00;93119.13;5088474;28;20086;-81
2021/06/09 02:54:36;;;;;;;3.03;1.63;;;;;;;10.48;100.00;93095.56;5084495;28;20113;-84
2021/06/09 02:57:08;;;;;;;2.92;1.70;;;;;;;10.68;100.00;93128.78;5088876;28;20060;-83
2021/06/09 02:59:45;;;;;;;2.60;1.48;;;;;;;10.40;100.00;93084.53;5089467;28;20114;-86
2021/06/09 03:02:22;;;;;;;3.17;2.17;;;;;;;10.68;100.00;93131.34;5089376;28;20058;-82
2021/06/09 03:04:53;;;;;;;3.80;2.00;;;;;;;10.51;100.00;93106.19;5091479;28;20044;-84
2021/06/09 03:07:28;;;;;;;2.50;1.30;;;;;;;10.61;100.00;93120.34;5093213;28;20047;-83
2021/06/09 03:10:05;;;;;;;2.33;1.38;;;;;;;10.61;100.00;93116.00;5092997;28;20062;-82
2021/06/09 03:12:43;;;;;;;2.13;1.05;;;;;;;10.63;100.00;93123.47;5093105;28;20403;-82
2021/06/09 03:15:13;;;;;;;2.67;1.67;;;;;;;10.63;100.00;93121.72;5092838;28;20407;-82
2021/06/09 03:17:47;;;;;;;2.00;1.17;;;;;;;10.62;100.00;93125.28;5092610;28;20586;-82
2021/06/09 03:20:22;;;;;;;2.17;1.25;;;;;;;10.59;100.00;93112.84;5092981;28;20044;-82
2021/06/09 03:22:59;;;;;;;2.55;1.98;;;;;;;10.67;100.00;93122.06;5092875;28;20070;-83
2021/06/09 03:25:32;;;;;;;2.72;1.52;;;;;;;10.68;100.00;93124.44;5092625;28;20062;-83
2021/06/09 03:28:15;;;;;;;5.03;2.28;;;;;;;10.60;100.00;93109.28;5092834;28;20047;-83
2021/06/09 03:30:44;;;;;;;2.67;1.50;;;;;;;10.67;100.00;93119.50;5092648;28;20479;-83
2021/06/09 03:33:14;;;;;;;4.90;3.63;;;;;;;10.72;100.00;93113.72;5092549;28;20043;-84
2021/06/09 03:35:49;;;;;;;4.15;2.13;;;;;;;10.69;100.00;93122.63;5092377;28;20458;-84
2021/06/09 03:38:23;;;;;;;7.65;2.95;;;;;;;10.71;100.00;93123.22;5092307;28;20036;-84
2021/06/09 03:40:56;;;;;;;5.13;2.13;;;;;;;10.67;100.00;93120.28;5092364;28;20044;-83
2021/06/09 03:43:25;;;;;;;4.90;1.85;;;;;;;10.67;100.00;93102.31;5092611;28;20051;-84
2021/06/09 03:45:53;;;;;;;5.90;1.52;;;;;;;10.81;100.00;93115.81;5093459;28;20093;-84
2021/06/09 03:48:21;;;;;;;3.28;2.15;;;;;;;10.83;100.00;93102.72;5092161;28;20479;-84
2021/06/09 03:50:51;;;;;;;7.53;2.20;;;;;;;10.99;100.00;93116.81;5092290;28;20391;-83
2021/06/09 03:53:18;;;;;;;7.43;2.03;;;;;;;10.44;100.00;93046.41;5092349;28;20090;-84
2021/06/09 03:55:47;;;;;;;5.50;2.13;;;;;;;11.00;100.00;93118.38;5092065;28;20051;-83
2021/06/09 03:58:17;;;;;;;4.45;1.88;;;;;;;11.04;100.00;93116.97;5092476;28;20093;-83
2021/06/09 04:00:47;;;;;;;4.85;2.42;;;;;;;11.11;100.00;93110.97;5091697;28;20047;-84
2021/06/09 04:03:14;;;;;;;5.22;1.70;;;;;;;11.02;100.00;93084.75;5091545;28;20410;-85
2021/06/09 04:05:43;;;;;;;4.55;1.90;;;;;;;11.26;100.00;93118.31;5091672;28;20052;-83
2021/06/09 04:08:13;;;;;;;5.47;2.35;;;;;;;11.30;100.00;93127.16;5091701;28;20480;-83
2021/06/09 04:10:43;;;;;;;3.95;2.25;;;;;;;11.35;100.00;93109.31;5091932;28;20426;-84
2021/06/09 04:13:10;;;;;;;3.95;1.67;;;;;;;11.44;100.00;93123.41;5091548;28;20108;-84
2021/06/09 04:15:39;;;;;;;4.97;2.45;;;;;;;11.52;100.00;93124.13;5091145;28;20044;-83
2021/06/09 04:18:07;;;;;;;3.33;2.22;;;;;;;11.59;100.00;93122.25;5091554;28;20387;-83
2021/06/09 04:20:34;;;;;;;9.98;2.33;;;;;;;11.65;100.00;93131.69;5091628;28;20047;-83
2021/06/09 04:23:04;;;;;;;3.92;2.92;;;;;;;11.71;100.00;93127.47;5091551;28;20129;-83
2021/06/09 04:25:32;;;;;;;3.40;2.15;;;;;;;11.66;100.00;93117.81;5091381;28;20042;-83
2021/06/09 04:27:59;;;;;;;4.03;2.50;;;;;;;11.80;100.00;93133.84;5091298;28;20896;-83
2021/06/09 04:30:26;;;;;;;3.00;1.85;;;;;;;11.87;100.00;93132.00;5091410;28;20067;-83
2021/06/09 04:32:54;;;;;;;3.35;2.38;;;;;;;11.96;100.00;93129.09;5093563;28;20056;-84
2021/06/09 04:35:22;;;;;;;3.72;1.98;;;;;;;12.04;100.00;93123.66;5091452;28;20106;-84
2021/06/09 04:37:49;;;;;;;5.15;3.50;;;;;;;12.10;100.00;93137.44;5091384;28;20054;-84
2021/06/09 04:40:22;;;;;;;3.17;1.88;;;;;;;12.16;100.00;93131.41;5091017;28;20475;-83
2021/06/09 04:42:51;;;;;;;3.33;2.25;;;;;;;12.22;100.00;93133.09;5091211;28;20040;-84
2021/06/09 04:45:18;;;;;;;5.43;2.90;;;;;;;12.30;100.00;93134.56;5091236;28;20070;-83
2021/06/09 04:47:46;;;;;;;4.88;3.35;;;;;;;12.37;100.00;93135.22;5090762;28;20044;-83
2021/06/09 04:50:15;;;;;;;3.33;2.22;;;;;;;12.40;100.00;93118.56;5090860;28;20040;-83
2021/06/09 04:52:41;;;;;;;4.32;2.17;;;;;;;12.46;100.00;93109.97;5090658;28;20487;-83
2021/06/09 04:55:08;;;;;;;;;;;;;;;12.62;100.00;93121.38;5091476;28;20055;-83
2021/06/09 04:57:35;;;;;;;3.25;1.67;;;;;;;12.57;100.00;93110.97;5090830;28;19920;-83
2021/06/09 05:00:05;;;;;;;5.28;3.28;;;;;;;12.66;100.00;93117.34;5090720;28;20048;-83
2021/06/09 05:02:31;;;;;;;5.68;2.70;;;;;;;12.78;100.00;93122.47;5090899;28;20048;-83
2021/06/09 05:04:57;;;;;;;;;;;;;;;12.94;100.00;93130.53;5091245;28;20094;-83
2021/06/09 05:07:23;;;;;;;8.35;3.75;;;;;;;13.06;100.00;93133.13;5090680;28;19919;-83
2021/06/09 05:09:50;;;;;;;8.57;4.07;;;;;;;13.14;100.00;93137.16;5090492;28;20040;-83
2021/06/09 05:12:20;;;;;;;9.50;4.80;;;;;;;13.23;100.00;93135.78;5090758;28;20092;-83
2021/06/09 05:14:50;;;;;;;10.00;5.07;;;;;;;13.33;100.00;93138.56;5090675;28;20040;-83
2021/06/09 05:17:22;;;;;;;12.38;4.53;;;;;;;13.44;100.00;93133.59;5090633;28;20105;-83
2021/06/09 05:19:50;;;;;;;6.18;3.78;;;;;;;13.57;100.00;93142.91;5090538;28;20063;-84
2021/06/09 05:22:22;;;;;;;6.68;3.60;;;;;;;13.74;100.00;93135.19;5090652;28;20389;-83
2021/06/09 05:24:50;;;;;;;6.72;4.10;;;;;;;13.78;100.00;93127.81;5090172;28;20051;-84
2021/06/09 05:27:19;;;;;;;8.10;4.22;;;;;;;13.98;100.00;93145.44;5089810;28;20040;-83
2021/06/09 05:29:47;;;;;;;8.73;3.97;;;;;;;13.97;100.00;93118.03;5090302;28;20066;-85
2021/06/09 05:32:14;;;;;;;7.60;3.78;;;;;;;14.24;100.00;93146.66;5090397;28;20062;-84
2021/06/09 05:34:43;;;;;;;10.68;5.10;;;;;;;14.41;100.00;93138.88;5090039;28;20109;-84
2021/06/09 05:37:10;;;;;;;13.88;5.05;;;;;;;14.57;100.00;93145.09;5090323;28;20097;-83
2021/06/09 05:39:38;;;;;;;13.30;5.57;;;;;;;14.70;100.00;93146.56;5090184;28;20044;-83
2021/06/09 05:42:07;;;;;;;9.48;4.32;;;;;;;14.81;100.00;93147.53;5090108;28;20450;-84
2021/06/09 05:44:34;;;;;;;12.98;5.45;;;;;;;14.94;100.00;93130.91;5089798;28;20040;-83
2021/06/09 05:47:01;;;;;;;10.93;5.22;;;;;;;15.08;100.00;93133.13;5090286;28;20043;-84
2021/06/09 05:49:28;;;;;;;10.23;4.35;;;;;;;15.27;100.00;93132.84;5090015;28;20093;-85
2021/06/09 05:51:56;;;;;;;9.07;5.03;;;;;;;15.01;100.00;93084.16;5089971;28;20522;-85
2021/06/09 05:54:24;;;;;;;9.38;3.90;;;;;;;15.44;100.00;93112.06;5089568;28;20050;-84
2021/06/09 05:56:51;;;;;;;9.63;4.03;;;;;;;15.78;100.00;93119.69;5090003;28;20040;-85
2021/06/09 05:59:17;;;;;;;9.88;4.70;;;;;;;16.07;100.00;93129.03;5089691;28;20126;-84
2021/06/09 06:01:44;;;;;;;9.07;4.50;;;;;;;16.21;100.00;93114.66;5089721;28;20052;-84
2021/06/09 06:04:11;;;;;;;6.43;4.03;;;;;;;16.50;100.00;93118.75;5089717;28;20399;-84
2021/06/09 06:06:38;;;;;;;7.47;3.85;;;;;;;16.82;100.00;93121.28;5089462;28;20495;-83
2021/06/09 06:09:06;;;;;;;7.75;3.92;;;;;;;17.00;100.00;93115.94;5089577;28;20074;-84
2021/06/09 06:11:34;;;;;;;9.45;4.68;;;;;;;17.40;99.12;93132.78;5089810;28;20044;-85
2021/06/09 06:14:04;;;;;;;8.07;3.25;;;;;;;17.60;97.22;93120.91;5089443;28;20539;-84
2021/06/09 06:16:30;;;;;;;11.00;3.88;;;;;;;17.59;96.09;93078.56;5089673;28;20067;-85
2021/06/09 06:18:57;;;;;;;8.30;3.65;;;;;;;18.18;95.42;93111.44;5089320;28;20047;-83
2021/06/09 06:21:23;;;;;;;9.65;3.80;;;;;;;18.54;94.43;93109.59;5089382;28;20056;-83
2021/06/09 06:23:51;;;;;;;6.85;3.72;;;;;;;18.93;93.56;93108.22;5089202;28;20048;-83
2021/06/09 06:26:21;;;;;;;5.07;2.92;;;;;;;19.23;91.45;93104.00;5089290;28;20040;-84
2021/06/09 06:28:48;;;;;;;8.80;3.90;;;;;;;19.58;89.70;93108.56;5089235;28;20085;-83
2021/06/09 06:31:19;;;;;;;10.57;4.05;;;;;;;19.92;88.82;93101.84;5089300;28;20491;-83
2021/06/09 06:33:47;;;;;;;12.65;4.72;;;;;;;20.24;86.59;93105.84;5089515;28;20377;-83
2021/06/09 06:36:16;;;;;;;6.90;4.03;;;;;;;20.54;84.16;93093.59;5089594;28;20043;-84
2021/06/09 06:38:44;;;;;;;6.75;3.03;;;;;;;20.33;81.83;93092.97;5091716;28;20043;-84
2021/06/09 06:41:11;;;;;;;17.17;3.78;;;;;;;20.22;84.79;93093.06;5093707;28;20044;-85
2021/06/09 06:43:40;;;;;;;6.18;2.85;;;;;;;20.72;81.65;93096.56;5093169;28;20043;-85
2021/06/09 06:46:14;;;;;;;7.00;2.67;;;;;;;20.98;82.68;93078.06;5093672;28;20109;-86
2021/06/09 06:48:41;;;;;;;6.55;3.40;;;;;;;21.56;81.86;93084.19;5093535;28;20504;-86
2021/06/09 06:51:10;;;;;;;11.50;3.55;;;;;;;21.95;80.01;93095.44;5093467;28;20043;-87
2021/06/09 06:53:40;;;;;;;5.50;2.50;;;;;;;21.88;76.67;93073.06;5093389;28;20526;-86
2021/06/09 06:56:16;;;;;;;8.55;2.63;;;;;;;22.31;74.73;93083.66;5093289;28;20108;-87
2021/06/09 06:58:48;;;;;;;7.38;3.45;;;;;;;22.64;76.25;93083.69;5093979;28;20058;-86
2021/06/09 07:01:15;;;;;;;5.00;2.10;;;;;;;23.00;74.89;93090.13;5094067;28;20487;-86
2021/06/09 07:03:43;;;;;;;7.38;2.28;;;;;;;22.67;72.29;93038.59;5093585;28;20048;-86
2021/06/09 07:06:10;;;;;;;5.53;2.20;;;;;;;23.16;72.86;93057.34;5093612;28;20047;-86
2021/06/09 07:08:38;;;;;;;5.35;2.60;;;;;;;23.53;71.47;93074.97;5093262;28;20480;-86
2021/06/09 07:11:05;;;;;;;6.63;2.15;;;;;;;23.99;71.42;93086.31;5092730;28;20082;-86
2021/06/09 07:13:33;;;;;;;3.97;2.25;;;;;;;23.68;69.00;93087.75;5092810;28;20502;-86
2021/06/09 07:16:03;;;;;;;2.72;1.98;;;;;;;23.78;68.39;93084.13;5092930;28;20040;-86
2021/06/09 07:18:31;;;;;;;2.08;1.30;;;;;;;23.48;65.67;93054.88;5092952;28;20044;-86
2021/06/09 07:20:58;;;;;;;2.78;1.38;;;;;;;24.08;67.51;93089.03;5093164;28;20055;-86
2021/06/09 07:23:26;;;;;;;2.80;1.88;;;;;;;23.61;65.29;93058.56;5092740;28;20422;-86
2021/06/09 07:25:52;;;;;;;1.67;0.90;;;;;;;23.35;63.06;93083.47;5092484;28;20040;-87
2021/06/09 07:28:20;;;;;;;1.63;0.95;;;;;;;23.82;66.15;93085.09;5092642;28;20044;-87
2021/06/09 07:30:47;;;;;;;1.52;0.90;;;;;;;23.24;62.43;93063.72;5092666;28;20048;-90
2021/06/09 07:33:15;;;;;;;1.85;0.75;;;;;;;22.74;63.50;93088.75;5092931;28;20044;-91
2021/06/09 07:35:42;;;;;;;1.67;1.02;;;;;;;22.82;61.64;93093.31;5092399;28;20044;-87
2021/06/09 07:38:14;;;;;;;1.52;0.82;;;;;;;22.22;64.03;93042.44;5092605;28;20422;-87
2021/06/09 07:40:44;;;;;;;2.15;1.02;;;;;;;22.35;64.80;93100.34;5092893;28;20369;-87
2021/06/09 07:43:15;;;;;;;2.22;0.85;;;;;;;22.17;61.76;93097.47;5093054;28;20048;-90
2021/06/09 07:45:43;;;;;;;1.48;1.00;;;;;;;21.80;63.12;93055.38;5092868;28;20143;-88
2021/06/09 07:48:11;;;;;;;1.50;0.77;;;;;;;22.18;63.56;93079.94;5095668;28;20112;-87
2021/06/09 07:50:42;;;;;;;1.40;0.88;;;;;;;22.76;62.66;93088.44;5109736;28;20044;-88
2021/06/09 07:53:11;;;;;;;1.20;0.73;;;;;;;22.85;60.49;93080.72;5106476;28;20044;-86
2021/06/09 07:55:41;;;;;;;1.33;0.70;;;;;;;22.83;61.20;93079.13;5092549;28;20583;-86
2021/06/09 07:58:08;;;;;;;2.33;1.33;;;;;;;23.02;64.78;93059.97;5092429;28;20044;-85
2021/06/09 08:00:35;;;;;;;1.92;1.05;;;;;;;23.50;62.87;93050.13;5092720;28;20051;-87
2021/06/09 08:03:02;;;;;;;1.85;1.00;;;;;;;23.00;61.68;93027.25;5092464;28;20048;-88
2021/06/09 08:05:28;;;;;;;1.02;0.60;;;;;;;23.49;62.82;93085.28;5092080;28;20048;-87
2021/06/09 08:07:56;;;;;;;1.85;1.02;;;;;;;23.65;61.14;93082.34;5091693;28;20564;-86
2021/06/09 08:10:23;;;;;;;1.90;1.10;;;;;;;23.68;59.59;93077.28;5091636;28;20502;-88
2021/06/09 08:12:51;;;;;;;3.42;0.57;;;;;;;23.32;59.65;93030.81;5091486;28;20044;-86
2021/06/09 08:15:18;;;;;;;1.85;0.88;;;;;;;23.15;60.74;93052.38;5091928;28;20065;-87
2021/06/09 08:17:45;;;;;;;2.08;0.90;;;;;;;22.82;60.83;93019.97;5091634;28;20051;-86
2021/06/09 08:20:13;;;;;;;2.30;0.63;;;;;;;23.69;60.34;93073.56;5091479;28;20076;-85
2021/06/09 08:22:43;;;;;;;3.63;0.90;;;;;;;23.57;57.05;93065.47;5089392;28;20055;-86
2021/06/09 08:25:13;;;;;;;1.05;0.73;;;;;;;23.50;57.47;93084.19;5088086;28;20055;-86
2021/06/09 08:27:40;;;;;;;1.42;0.73;;;;;;;23.93;57.43;93063.91;5088464;28;20178;-86
2021/06/09 08:30:08;;;;;;;0.88;0.57;;;;;;;24.03;52.25;93072.31;5090868;28;20466;-87
2021/06/09 08:32:34;;;;;;;3.17;0.70;;;;;;;23.40;54.65;93039.84;5091376;28;20115;-86
2021/06/09 08:35:01;;;;;;;0.82;0.55;;;;;;;23.61;54.11;93079.53;5091633;28;20044;-89
2021/06/09 08:37:28;;;;;;;1.42;0.40;;;;;;;23.08;54.27;93042.28;5091557;28;20050;-86
2021/06/09 08:39:57;;;;;;;1.50;0.75;;;;;;;23.10;54.74;93084.69;5091447;28;20495;-89
2021/06/09 08:42:27;;;;;;;1.55;0.70;;;;;;;23.58;54.49;93080.09;5091781;28;20130;-87
2021/06/09 08:44:54;;;;;;;1.52;0.65;;;;;;;23.63;56.50;93072.13;5091637;28;20044;-87
2021/06/09 08:47:22;;;;;;;2.08;0.90;;;;;;;23.27;55.64;93060.50;5091459;28;20047;-87
2021/06/09 08:49:49;;;;;;;1.13;0.63;;;;;;;23.38;55.62;93068.19;5091896;28;20131;-89
2021/06/09 08:52:16;;;;;;;2.08;0.70;;;;;;;23.34;55.53;93049.66;5091776;28;20052;-89
2021/06/09 08:54:45;;;;;;;1.10;0.57;;;;;;;23.64;53.91;93091.28;5091572;28;20051;-86
2021/06/09 08:57:13;;;;;;;1.17;0.68;;;;;;;23.23;53.65;93043.81;5091563;28;20055;-89
2021/06/09 08:59:43;;;;;;;1.63;0.85;;;;;;;23.72;53.29;93062.50;5091045;28;20048;-88
2021/06/09 09:02:10;;;;;;;2.15;0.52;;;;;;;23.40;53.68;93027.53;5089833;28;20471;-87
2021/06/09 09:04:37;;;;;;;1.40;0.70;;;;;;;24.08;53.13;93086.41;5090580;28;20044;-87
2021/06/09 09:07:04;;;;;;;1.35;0.73;;;;;;;24.28;51.50;93083.31;5090711;28;20047;-86
2021/06/09 09:09:30;;;;;;;1.48;0.70;;;;;;;24.20;52.94;93088.50;5091521;28;20078;-89
2021/06/09 09:11:57;;;;;;;1.58;0.73;;;;;;;24.01;50.46;93084.16;5090961;28;20494;-88
2021/06/09 09:14:24;;;;;;;1.52;0.77;;;;;;;23.71;51.60;93079.31;5090240;28;20036;-91
2021/06/09 09:17:06;;;;;;;2.08;0.93;;;;;;;23.89;53.36;93082.84;5090421;28;20537;-88
2021/06/09 09:19:35;;;;;;;2.15;0.77;;;;;;;23.38;50.91;93032.31;5090759;28;20040;-91
2021/06/09 09:22:03;;;;;;;2.15;1.27;;;;;;;23.86;55.00;93087.91;5090556;28;20060;-88
2021/06/09 09:24:42;;;;;;;2.28;1.10;;;;;;;24.00;52.52;93045.88;5090597;28;20091;-91
2021/06/09 09:27:09;;;;;;;1.67;0.93;;;;;;;23.86;52.62;93056.44;5090999;28;20170;-91
2021/06/09 09:29:36;;;;;;;1.58;0.90;;;;;;;23.81;55.55;93088.03;5091602;28;20117;-92
2021/06/09 09:32:07;;;;;;;1.90;0.85;;;;;;;23.50;56.09;93068.47;5091754;28;20040;-91
2021/06/09 09:34:47;;;;;;;;;;;;;;;;;;;;;
2021/06/09 09:37:17;;;;;;;2.38;0.80;;;;;;;23.72;53.55;93028.41;5093100;28;20047;-92
2021/06/09 09:39:46;;;;;;;2.03;0.90;;;;;;;24.00;52.90;93041.44;5090893;28;20040;-90
2021/06/09 09:42:31;;;;;;;1.90;0.73;;;;;;;24.41;52.02;93086.19;5092318;28;20048;-89
2021/06/09 09:45:16;;;;;;;1.80;0.90;;;;;;;23.65;52.29;92991.31;5090946;28;20464;-93
2021/06/09 09:48:04;;;;;;;3.00;1.20;;;;;;;23.91;55.82;93051.06;5076095;28;20127;-90
2021/06/09 09:50:32;;;;;;;2.35;1.20;;;;;;;23.28;54.23;93016.75;5090902;28;20048;-89
2021/06/09 09:53:18;;;;;;;2.85;1.60;;;;;;;23.57;54.41;93042.66;5091658;28;20143;-92
2021/06/09 09:56:08;;;;;;;3.28;1.20;;;;;;;23.49;54.51;93032.84;5092138;28;20044;-94
2021/06/09 09:58:44;;;;;;;2.70;1.00;;;;;;;23.67;53.40;93033.00;5094079;28;20063;-94
2021/06/09 10:01:13;;;;;;;1.60;0.90;;;;;;;24.21;53.54;93056.69;5091434;28;20052;-88
2021/06/09 10:03:43;;;;;;;1.50;0.77;;;;;;;24.59;50.05;93018.78;5090595;28;20066;-94
2021/06/09 10:06:27;;;;;;;1.15;0.60;;;;;;;24.32;50.89;93065.13;5092112;28;20055;-94
2021/06/09 10:09:03;;;;;;;1.67;0.82;;;;;;;24.28;49.48;93054.44;5092558;28;20039;-91
2021/06/09 10:11:48;;;;;;;1.35;0.80;;;;;;;24.12;51.21;93027.03;5090746;28;20052;-93
2021/06/09 10:14:20;;;;;;;1.20;0.50;;;;;;;24.22;45.92;93026.78;5090224;28;20458;-91
2021/06/09 10:16:48;;;;;;;1.83;0.90;;;;;;;24.15;49.64;92997.56;5091147;28;20040;-91
2021/06/09 10:19:19;;;;;;;1.77;0.95;;;;;;;24.94;48.93;93023.41;5089739;28;20072;-94
2021/06/09 10:21:49;;;;;;;2.33;0.95;;;;;;;24.86;49.16;92993.44;5089696;28;20054;-91
2021/06/09 10:24:17;;;;;;;1.65;0.73;;;;;;;24.99;48.86;93038.28;5073114;28;20050;-90
2021/06/09 10:26:51;;;;;;;2.22;1.27;;;;;;;24.94;49.77;93047.84;5095136;28;20069;-89
2021/06/09 10:29:21;;;;;;;1.90;0.98;;;;;;;25.26;47.90;93023.34;5091454;28;20439;-93
2021/06/09 10:31:49;;;;;;;3.78;0.90;;;;;;;25.43;47.89;93048.88;5090844;28;20131;-90
2021/06/09 10:34:21;;;;;;;3.92;0.90;;;;;;;25.34;49.23;93046.22;5091269;28;20044;-91
2021/06/09 10:36:50;;;;;;;1.60;0.93;;;;;;;24.42;50.97;92954.63;5092251;28;20052;-94
2021/06/09 10:39:23;;;;;;;2.35;1.05;;;;;;;24.71;49.78;93039.22;5093107;28;20044;-93
2021/06/09 10:41:51;;;;;;;1.45;0.50;;;;;;;24.22;43.44;93066.16;5091600;28;20475;-92
2021/06/09 10:44:20;;;;;;;1.65;0.93;;;;;;;24.00;46.94;92981.09;5093375;28;20060;-91
2021/06/09 10:46:53;;;;;;;2.00;1.00;;;;;;;24.70;47.67;93040.28;5093016;28;20052;-93
2021/06/09 10:49:23;;;;;;;1.42;1.00;;;;;;;24.78;48.99;92976.53;5090295;28;20502;-92
2021/06/09 10:51:51;;;;;;;1.27;0.68;;;;;;;24.78;45.16;92994.91;5093413;28;20384;-90
2021/06/09 10:54:27;;;;;;;1.23;0.73;;;;;;;23.94;44.57;92944.78;5094084;28;20051;-95
2021/06/09 10:56:57;;;;;;;2.50;0.63;;;;;;;24.23;46.51;92982.94;5090127;28;20540;-93
2021/06/09 10:59:25;;;;;;;1.77;0.70;;;;;;;23.59;47.29;93003.78;5091500;28;20051;-88
2021/06/09 11:02:22;;;;;;;1.80;0.70;;;;;;;23.66;50.83;92995.53;5092474;28;20522;-94
2021/06/09 11:04:55;;;;;;;1.27;0.73;;;;;;;24.44;48.10;93019.16;5094695;28;20044;-94
2021/06/09 11:07:29;;;;;;;1.65;0.70;;;;;;;24.00;47.78;92931.25;5094066;28;20411;-93
2021/06/09 11:09:56;;;;;;;1.15;0.70;;;;;;;24.80;46.18;93008.50;5093013;28;20040;-90
2021/06/09 11:12:53;;;;;;;1.08;0.50;;;;;;;24.87;47.08;92979.22;5091089;28;20047;-95
2021/06/09 11:15:24;;;;;;;0.98;0.57;;;;;;;24.98;44.21;93026.22;5092248;28;20044;-90
2021/06/09 11:20:58;;;;;;;1.15;0.60;;;;;;;24.82;46.37;92982.72;5082477;28;20491;-91
2021/06/09 11:23:28;;;;;;;1.13;0.70;;;;;;;24.85;43.39;93007.63;5106751;28;20047;-89
2021/06/09 11:28:46;;;;;;;1.42;0.60;;;;;;;25.21;43.43;93011.88;5068728;28;20071;-90
2021/06/09 11:31:41;;;;;;;;;;;;;;;;;;;;;
2021/06/09 11:34:15;;;;;;;1.52;0.90;;;;;;;25.72;40.57;92997.56;5087270;28;20036;-92
2021/06/09 11:36:51;;;;;;;1.27;0.57;;;;;;;24.58;41.25;92893.81;5088178;28;20509;-92
2021/06/09 11:39:25;;;;;;;;;;;;;;;25.58;42.52;92992.44;5094540;28;20085;-86
2021/06/09 11:41:59;;;;;;;1.10;0.60;;;;;;;25.17;41.96;92939.97;5094918;28;19920;-92
2021/06/09 11:44:30;;;;;;;1.48;0.40;;;;;;;24.83;39.19;92904.72;5088706;28;20061;-92
2021/06/09 11:47:26;;;;;;;5.30;0.90;;;;;;;25.45;41.26;92991.47;5091193;28;20032;-96
2021/06/09 11:50:50;;;;;;;3.42;0.80;;;;;;;25.23;41.14;92987.94;5093939;28;20103;-95
2021/06/09 11:53:43;;;;;;;1.50;0.85;;;;;;;25.52;41.56;92980.50;5090808;28;20067;-94